createdAt,value
2019-02-10T00:00:17.406Z,980.14
2019-02-10T00:01:17.360Z,980.15
2019-02-10T00:02:19.166Z,980.10
2019-02-10T00:03:17.227Z,980.12
2019-02-10T00:04:17.186Z,979.97
2019-02-10T00:05:17.106Z,979.88
2019-02-10T00:06:24.274Z,979.94
2019-02-10T00:07:16.985Z,979.91
2019-02-10T00:08:16.924Z,979.81
2019-02-10T00:09:16.866Z,979.86
2019-02-10T00:10:16.814Z,979.83
2019-02-10T00:11:16.745Z,979.79
2019-02-10T00:12:16.688Z,979.77
2019-02-10T00:13:16.623Z,979.80
2019-02-10T00:14:16.564Z,979.79
2019-02-10T00:15:16.504Z,979.77
2019-02-10T00:16:16.442Z,979.79
2019-02-10T00:17:16.383Z,979.81
2019-02-10T00:18:16.324Z,979.83
2019-02-10T00:19:16.267Z,979.84
2019-02-10T00:20:16.203Z,979.79
2019-02-10T00:21:16.141Z,979.71
2019-02-10T00:22:16.700Z,979.69
2019-02-10T00:23:16.022Z,979.65
2019-02-10T00:24:15.962Z,979.64
2019-02-10T00:25:15.902Z,979.64
2019-02-10T00:26:15.842Z,979.61
2019-02-10T00:27:15.782Z,979.58
2019-02-10T00:28:15.760Z,979.53
2019-02-10T00:29:15.695Z,979.56
2019-02-10T00:30:15.602Z,979.54
2019-02-10T00:31:15.543Z,979.55
2019-02-10T00:32:15.480Z,979.55
2019-02-10T00:33:15.424Z,979.58
2019-02-10T00:34:15.361Z,979.58
2019-02-10T00:35:15.298Z,979.56
2019-02-10T00:36:15.239Z,979.52
2019-02-10T00:37:15.178Z,979.53
2019-02-10T00:38:15.118Z,979.49
2019-02-10T00:39:15.058Z,979.43
2019-02-10T00:40:14.999Z,979.43
2019-02-10T00:41:14.938Z,979.37
2019-02-10T00:42:14.880Z,979.41
2019-02-10T00:43:14.817Z,979.44
2019-02-10T00:44:14.786Z,979.45
2019-02-10T00:45:14.698Z,979.44
2019-02-10T00:46:14.638Z,979.42
2019-02-10T00:47:14.577Z,979.44
2019-02-10T00:48:14.519Z,979.36
2019-02-10T00:49:14.456Z,979.34
2019-02-10T00:50:14.399Z,979.30
2019-02-10T00:51:14.336Z,979.27
2019-02-10T00:52:14.275Z,979.27
2019-02-10T00:53:14.217Z,979.22
2019-02-10T00:54:14.155Z,979.24
2019-02-10T00:55:14.098Z,979.21
2019-02-10T00:56:14.034Z,979.21
2019-02-10T00:57:13.976Z,979.21
2019-02-10T00:58:13.915Z,979.18
2019-02-10T00:59:13.854Z,979.16
2019-02-10T01:00:13.793Z,979.17
2019-02-10T01:01:13.732Z,979.17
2019-02-10T01:02:13.673Z,979.13
2019-02-10T01:03:13.615Z,979.21
2019-02-10T01:04:13.553Z,979.24
2019-02-10T01:05:13.492Z,979.20
2019-02-10T01:06:13.438Z,979.24
2019-02-10T01:07:13.372Z,979.20
2019-02-10T01:08:13.313Z,979.16
2019-02-10T01:09:13.252Z,979.20
2019-02-10T01:10:13.191Z,979.22
2019-02-10T01:11:13.134Z,979.16
2019-02-10T01:12:13.071Z,979.14
2019-02-10T01:13:13.014Z,979.15
2019-02-10T01:14:12.951Z,979.12
2019-02-10T01:15:12.892Z,979.11
2019-02-10T01:16:12.829Z,979.04
2019-02-10T01:17:12.769Z,979.02
2019-02-10T01:18:12.871Z,978.99
2019-02-10T01:19:13.399Z,978.97
2019-02-10T01:20:12.589Z,978.84
2019-02-10T01:21:12.531Z,978.87
2019-02-10T01:22:12.469Z,978.86
2019-02-10T01:23:12.413Z,978.84
2019-02-10T01:24:12.347Z,978.90
2019-02-10T01:25:12.288Z,978.93
2019-02-10T01:26:12.229Z,978.95
2019-02-10T01:27:12.168Z,978.96
2019-02-10T01:28:12.107Z,978.96
2019-02-10T01:29:12.047Z,978.94
2019-02-10T01:30:11.987Z,978.94
2019-02-10T01:31:11.927Z,978.93
2019-02-10T01:32:11.872Z,978.96
2019-02-10T01:33:11.809Z,978.91
2019-02-10T01:34:11.751Z,978.92
2019-02-10T01:35:11.686Z,978.95
2019-02-10T01:36:11.626Z,978.89
2019-02-10T01:37:11.579Z,978.89
2019-02-10T01:38:11.506Z,978.83
2019-02-10T01:39:11.446Z,978.84
2019-02-10T01:40:11.389Z,978.89
2019-02-10T01:41:11.324Z,978.87
2019-02-10T01:42:11.264Z,978.84
2019-02-10T01:43:11.204Z,978.81
2019-02-10T01:44:11.144Z,978.78
2019-02-10T01:45:11.090Z,978.79
2019-02-10T01:46:11.424Z,978.73
2019-02-10T01:47:10.963Z,978.71
2019-02-10T01:48:10.905Z,978.67
2019-02-10T01:49:10.843Z,978.67
2019-02-10T01:50:10.783Z,978.59
2019-02-10T01:51:10.727Z,978.59
2019-02-10T01:52:10.661Z,978.55
2019-02-10T01:53:10.602Z,978.57
2019-02-10T01:54:10.543Z,978.55
2019-02-10T01:55:10.483Z,978.54
2019-02-10T01:56:10.428Z,978.49
2019-02-10T01:57:10.362Z,978.46
2019-02-10T01:58:10.300Z,978.45
2019-02-10T01:59:10.241Z,978.45
2019-02-10T02:00:10.246Z,978.40
2019-02-10T02:01:10.122Z,978.39
2019-02-10T02:02:10.251Z,978.41
2019-02-10T02:03:10.042Z,978.38
2019-02-10T02:04:09.939Z,978.36
2019-02-10T02:05:09.884Z,978.34
2019-02-10T02:06:09.820Z,978.33
2019-02-10T02:07:09.763Z,978.29
2019-02-10T02:08:09.699Z,978.27
2019-02-10T02:09:11.166Z,978.25
2019-02-10T02:10:09.580Z,978.21
2019-02-10T02:11:09.518Z,978.15
2019-02-10T02:12:09.457Z,978.13
2019-02-10T02:13:09.399Z,978.10
2019-02-10T02:14:09.340Z,978.12
2019-02-10T02:15:09.279Z,978.03
2019-02-10T02:16:09.216Z,978.04
2019-02-10T02:17:09.158Z,977.95
2019-02-10T02:18:09.097Z,977.95
2019-02-10T02:19:09.036Z,977.89
2019-02-10T02:20:08.976Z,977.86
2019-02-10T02:21:08.915Z,977.88
2019-02-10T02:22:08.858Z,977.79
2019-02-10T02:23:08.797Z,977.81
2019-02-10T02:24:08.734Z,977.76
2019-02-10T02:25:08.676Z,977.69
2019-02-10T02:26:08.614Z,977.72
2019-02-10T02:27:08.555Z,977.63
2019-02-10T02:28:08.493Z,977.61
2019-02-10T02:29:08.730Z,977.56
2019-02-10T02:30:08.542Z,977.50
2019-02-10T02:31:08.318Z,977.53
2019-02-10T02:32:08.252Z,977.52
2019-02-10T02:33:08.192Z,977.45
2019-02-10T02:34:08.132Z,977.49
2019-02-10T02:35:08.074Z,977.49
2019-02-10T02:36:08.011Z,977.41
2019-02-10T02:37:08.441Z,977.39
2019-02-10T02:38:07.892Z,977.43
2019-02-10T02:39:07.832Z,977.35
2019-02-10T02:40:07.770Z,977.35
2019-02-10T02:41:07.712Z,977.31
2019-02-10T02:42:07.651Z,977.33
2019-02-10T02:43:07.592Z,977.25
2019-02-10T02:44:07.530Z,977.20
2019-02-10T02:45:07.954Z,977.10
2019-02-10T02:46:07.411Z,977.12
2019-02-10T02:47:07.351Z,977.09
2019-02-10T02:48:07.298Z,977.08
2019-02-10T02:49:07.228Z,977.05
2019-02-10T02:50:07.169Z,977.05
2019-02-10T02:51:07.108Z,977.01
2019-02-10T02:52:07.049Z,976.99
2019-02-10T02:53:06.987Z,976.96
2019-02-10T02:54:06.938Z,976.97
2019-02-10T02:55:06.867Z,976.91
2019-02-10T02:56:06.809Z,976.93
2019-02-10T02:57:06.747Z,976.89
2019-02-10T02:58:06.688Z,976.86
2019-02-10T02:59:06.626Z,976.83
2019-02-10T03:00:06.566Z,976.75
2019-02-10T03:01:06.507Z,976.71
2019-02-10T03:02:06.458Z,976.71
2019-02-10T03:03:06.387Z,976.65
2019-02-10T03:04:06.336Z,976.65
2019-02-10T03:05:06.269Z,976.64
2019-02-10T03:06:06.204Z,976.61
2019-02-10T03:07:06.146Z,976.59
2019-02-10T03:08:06.083Z,976.58
2019-02-10T03:09:06.023Z,976.57
2019-02-10T03:10:05.965Z,976.60
2019-02-10T03:11:05.906Z,976.63
2019-02-10T03:12:05.842Z,976.65
2019-02-10T03:13:05.788Z,976.54
2019-02-10T03:14:05.724Z,976.44
2019-02-10T03:15:05.663Z,976.43
2019-02-10T03:16:05.606Z,976.40
2019-02-10T03:17:05.541Z,976.36
2019-02-10T03:18:05.480Z,976.41
2019-02-10T03:19:05.425Z,976.32
2019-02-10T03:20:05.361Z,976.35
2019-02-10T03:21:05.299Z,976.35
2019-02-10T03:22:05.240Z,976.33
2019-02-10T03:23:05.180Z,976.33
2019-02-10T03:24:05.126Z,976.31
2019-02-10T03:25:05.065Z,976.32
2019-02-10T03:26:05.001Z,976.24
2019-02-10T03:27:04.939Z,976.20
2019-02-10T03:28:04.886Z,976.19
2019-02-10T03:29:04.817Z,976.19
2019-02-10T03:30:04.758Z,976.22
2019-02-10T03:31:04.703Z,976.19
2019-02-10T03:32:04.638Z,976.11
2019-02-10T03:33:04.582Z,976.10
2019-02-10T03:34:04.590Z,976.11
2019-02-10T03:35:04.457Z,976.05
2019-02-10T03:36:04.395Z,975.99
2019-02-10T03:37:04.336Z,975.90
2019-02-10T03:38:04.276Z,975.95
2019-02-10T03:39:04.216Z,975.96
2019-02-10T03:40:04.155Z,975.92
2019-02-10T03:41:04.094Z,975.85
2019-02-10T03:42:04.035Z,975.86
2019-02-10T03:43:03.975Z,975.83
2019-02-10T03:44:03.913Z,975.78
2019-02-10T03:45:03.853Z,975.75
2019-02-10T03:46:03.816Z,975.76
2019-02-10T03:47:03.734Z,975.66
2019-02-10T03:48:03.813Z,975.59
2019-02-10T03:49:03.611Z,975.61
2019-02-10T03:50:03.552Z,975.59
2019-02-10T03:51:03.499Z,975.58
2019-02-10T03:52:03.432Z,975.48
2019-02-10T03:53:03.375Z,975.42
2019-02-10T03:54:03.313Z,975.41
2019-02-10T03:55:03.256Z,975.34
2019-02-10T03:56:03.190Z,975.39
2019-02-10T03:57:03.129Z,975.40
2019-02-10T03:58:03.070Z,975.36
2019-02-10T03:59:03.016Z,975.39
2019-02-10T04:00:02.953Z,975.37
2019-02-10T04:01:02.889Z,975.35
2019-02-10T04:02:02.833Z,975.31
2019-02-10T04:03:02.768Z,975.32
2019-02-10T04:04:02.725Z,975.37
2019-02-10T04:05:02.647Z,975.36
2019-02-10T04:06:02.589Z,975.30
2019-02-10T04:07:02.530Z,975.29
2019-02-10T04:08:02.468Z,975.27
2019-02-10T04:09:02.406Z,975.32
2019-02-10T04:10:02.346Z,975.30
2019-02-10T04:11:02.298Z,975.28
2019-02-10T04:12:02.230Z,975.22
2019-02-10T04:13:02.165Z,975.21
2019-02-10T04:14:02.116Z,975.20
2019-02-10T04:15:02.046Z,975.21
2019-02-10T04:16:01.985Z,975.16
2019-02-10T04:17:01.927Z,975.16
2019-02-10T04:18:01.866Z,975.14
2019-02-10T04:19:01.805Z,975.13
2019-02-10T04:20:01.747Z,975.15
2019-02-10T04:21:01.693Z,975.12
2019-02-10T04:22:01.623Z,975.09
2019-02-10T04:23:01.563Z,975.10
2019-02-10T04:24:01.505Z,975.14
2019-02-10T04:25:01.449Z,975.11
2019-02-10T04:26:01.382Z,975.08
2019-02-10T04:27:01.337Z,975.06
2019-02-10T04:28:01.261Z,974.99
2019-02-10T04:29:01.201Z,974.98
2019-02-10T04:30:01.141Z,975.01
2019-02-10T04:31:01.082Z,975.02
2019-02-10T04:32:01.026Z,975.06
2019-02-10T04:33:00.969Z,975.00
2019-02-10T04:34:00.901Z,975.00
2019-02-10T04:35:00.841Z,975.02
2019-02-10T04:36:00.781Z,975.02
2019-02-10T04:37:00.723Z,974.97
2019-02-10T04:38:00.661Z,974.95
2019-02-10T04:39:00.598Z,974.86
2019-02-10T04:40:00.564Z,974.83
2019-02-10T04:41:00.804Z,974.77
2019-02-10T04:42:00.421Z,974.70
2019-02-10T04:43:00.359Z,974.64
2019-02-10T04:44:00.298Z,974.55
2019-02-10T04:45:00.405Z,974.51
2019-02-10T04:46:00.187Z,974.45
2019-02-10T04:47:00.116Z,974.47
2019-02-10T04:48:00.060Z,974.49
2019-02-10T04:48:59.997Z,974.56
2019-02-10T04:49:59.939Z,974.54
2019-02-10T04:50:59.876Z,974.55
2019-02-10T04:51:59.815Z,974.62
2019-02-10T04:52:59.756Z,974.67
2019-02-10T04:53:59.696Z,974.72
2019-02-10T04:54:59.637Z,974.75
2019-02-10T04:55:59.574Z,974.69
2019-02-10T04:56:59.515Z,974.62
2019-02-10T04:57:59.455Z,974.60
2019-02-10T04:58:59.394Z,974.57
2019-02-10T04:59:59.332Z,974.56
2019-02-10T05:00:59.273Z,974.56
2019-02-10T05:01:59.215Z,974.59
2019-02-10T05:02:59.155Z,974.59
2019-02-10T05:03:59.098Z,974.60
2019-02-10T05:04:59.043Z,974.57
2019-02-10T05:05:58.976Z,974.54
2019-02-10T05:06:58.915Z,974.48
2019-02-10T05:07:58.851Z,974.47
2019-02-10T05:08:58.791Z,974.48
2019-02-10T05:09:58.733Z,974.46
2019-02-10T05:10:58.671Z,974.42
2019-02-10T05:11:58.614Z,974.35
2019-02-10T05:12:58.550Z,974.35
2019-02-10T05:13:58.504Z,974.35
2019-02-10T05:14:58.435Z,974.33
2019-02-10T05:15:58.369Z,974.29
2019-02-10T05:16:58.317Z,974.32
2019-02-10T05:17:58.260Z,974.24
2019-02-10T05:18:58.189Z,974.27
2019-02-10T05:19:58.130Z,974.13
2019-02-10T05:20:58.068Z,974.05
2019-02-10T05:21:58.010Z,974.05
2019-02-10T05:22:57.950Z,974.00
2019-02-10T05:24:03.479Z,973.97
2019-02-10T05:24:57.827Z,973.97
2019-02-10T05:25:57.767Z,973.92
2019-02-10T05:26:57.715Z,973.93
2019-02-10T05:27:57.658Z,973.94
2019-02-10T05:28:57.590Z,973.91
2019-02-10T05:29:57.527Z,973.90
2019-02-10T05:30:57.481Z,973.80
2019-02-10T05:31:57.411Z,973.78
2019-02-10T05:32:57.347Z,973.79
2019-02-10T05:33:57.286Z,973.73
2019-02-10T05:34:57.226Z,973.70
2019-02-10T05:35:57.164Z,973.71
2019-02-10T05:36:57.106Z,973.70
2019-02-10T05:38:03.905Z,973.76
2019-02-10T05:38:56.984Z,973.72
2019-02-10T05:39:56.931Z,973.73
2019-02-10T05:40:56.866Z,973.66
2019-02-10T05:41:56.808Z,973.60
2019-02-10T05:42:56.744Z,973.65
2019-02-10T05:43:56.685Z,973.58
2019-02-10T05:44:56.624Z,973.51
2019-02-10T05:45:56.564Z,973.50
2019-02-10T05:46:56.502Z,973.40
2019-02-10T05:47:56.441Z,973.45
2019-02-10T05:48:56.381Z,973.48
2019-02-10T05:49:56.321Z,973.39
2019-02-10T05:50:56.260Z,973.19
2019-02-10T05:51:56.201Z,973.14
2019-02-10T05:52:56.142Z,973.15
2019-02-10T05:53:56.080Z,973.20
2019-02-10T05:54:56.020Z,973.32
2019-02-10T05:55:55.961Z,973.25
2019-02-10T05:56:55.899Z,973.27
2019-02-10T05:57:55.842Z,973.23
2019-02-10T05:58:55.781Z,973.21
2019-02-10T05:59:55.721Z,973.23
2019-02-10T06:00:55.677Z,973.15
2019-02-10T06:01:55.599Z,973.21
2019-02-10T06:02:55.541Z,973.26
2019-02-10T06:03:55.476Z,973.19
2019-02-10T06:04:55.416Z,973.16
2019-02-10T06:05:55.360Z,973.16
2019-02-10T06:06:55.301Z,973.10
2019-02-10T06:07:55.240Z,973.11
2019-02-10T06:08:55.179Z,973.10
2019-02-10T06:09:55.117Z,973.06
2019-02-10T06:10:55.056Z,973.03
2019-02-10T06:11:54.994Z,972.98
2019-02-10T06:12:54.944Z,972.95
2019-02-10T06:14:09.713Z,973.00
2019-02-10T06:14:54.814Z,973.01
2019-02-10T06:15:54.754Z,972.94
2019-02-10T06:16:54.693Z,972.93
2019-02-10T06:17:54.634Z,972.93
2019-02-10T06:18:54.573Z,972.93
2019-02-10T06:19:54.518Z,972.91
2019-02-10T06:20:54.455Z,972.90
2019-02-10T06:21:54.392Z,972.92
2019-02-10T06:22:54.335Z,972.91
2019-02-10T06:23:54.271Z,972.86
2019-02-10T06:24:54.211Z,972.83
2019-02-10T06:25:54.153Z,972.78
2019-02-10T06:26:54.092Z,972.81
2019-02-10T06:27:54.030Z,972.76
2019-02-10T06:28:53.970Z,972.74
2019-02-10T06:29:53.910Z,972.79
2019-02-10T06:30:53.850Z,972.77
2019-02-10T06:31:53.790Z,972.79
2019-02-10T06:32:53.730Z,972.76
2019-02-10T06:33:53.670Z,972.70
2019-02-10T06:34:53.609Z,972.65
2019-02-10T06:35:53.555Z,972.64
2019-02-10T06:36:53.489Z,972.56
2019-02-10T06:37:53.430Z,972.53
2019-02-10T06:38:53.369Z,972.55
2019-02-10T06:39:53.308Z,972.52
2019-02-10T06:40:53.253Z,972.51
2019-02-10T06:41:53.187Z,972.51
2019-02-10T06:42:53.129Z,972.47
2019-02-10T06:43:53.066Z,972.42
2019-02-10T06:44:53.007Z,972.50
2019-02-10T06:45:52.946Z,972.52
2019-02-10T06:46:52.886Z,972.53
2019-02-10T06:47:52.825Z,972.56
2019-02-10T06:48:52.765Z,972.55
2019-02-10T06:49:52.705Z,972.54
2019-02-10T06:50:52.652Z,972.54
2019-02-10T06:51:52.588Z,972.56
2019-02-10T06:52:52.526Z,972.60
2019-02-10T06:53:52.464Z,972.61
2019-02-10T06:54:52.405Z,972.60
2019-02-10T06:55:52.346Z,972.56
2019-02-10T06:56:52.283Z,972.57
2019-02-10T06:57:52.223Z,972.54
2019-02-10T06:58:52.163Z,972.51
2019-02-10T06:59:52.106Z,972.53
2019-02-10T07:00:52.048Z,972.49
2019-02-10T07:01:51.983Z,972.56
2019-02-10T07:02:51.922Z,972.55
2019-02-10T07:03:51.862Z,972.66
2019-02-10T07:04:51.802Z,972.70
2019-02-10T07:05:51.741Z,972.73
2019-02-10T07:06:51.681Z,972.70
2019-02-10T07:07:51.620Z,972.73
2019-02-10T07:08:51.560Z,972.75
2019-02-10T07:09:51.501Z,972.71
2019-02-10T07:10:51.439Z,972.72
2019-02-10T07:11:51.395Z,972.73
2019-02-10T07:12:51.319Z,972.69
2019-02-10T07:13:51.259Z,972.68
2019-02-10T07:14:51.203Z,972.64
2019-02-10T07:15:51.142Z,972.64
2019-02-10T07:16:51.080Z,972.65
2019-02-10T07:17:51.018Z,972.62
2019-02-10T07:18:50.958Z,972.66
2019-02-10T07:19:50.897Z,972.56
2019-02-10T07:20:50.837Z,972.56
2019-02-10T07:21:50.777Z,972.60
2019-02-10T07:22:50.718Z,972.54
2019-02-10T07:23:50.655Z,972.48
2019-02-10T07:24:50.597Z,972.41
2019-02-10T07:25:50.536Z,972.32
2019-02-10T07:26:50.477Z,972.30
2019-02-10T07:27:50.416Z,972.24
2019-02-10T07:28:50.358Z,972.19
2019-02-10T07:29:50.294Z,972.17
2019-02-10T07:30:50.240Z,972.09
2019-02-10T07:31:50.174Z,972.14
2019-02-10T07:32:50.115Z,972.07
2019-02-10T07:33:50.054Z,972.09
2019-02-10T07:34:49.994Z,972.05
2019-02-10T07:35:49.934Z,972.06
2019-02-10T07:36:49.876Z,972.04
2019-02-10T07:37:49.814Z,972.04
2019-02-10T07:38:49.753Z,972.06
2019-02-10T07:39:49.693Z,972.04
2019-02-10T07:40:49.632Z,972.03
2019-02-10T07:41:49.574Z,971.94
2019-02-10T07:42:49.512Z,971.93
2019-02-10T07:43:49.451Z,971.88
2019-02-10T07:44:49.392Z,971.92
2019-02-10T07:45:49.331Z,971.86
2019-02-10T07:46:49.277Z,971.86
2019-02-10T07:47:49.217Z,971.82
2019-02-10T07:48:49.150Z,971.79
2019-02-10T07:49:49.091Z,971.73
2019-02-10T07:50:49.032Z,971.61
2019-02-10T07:51:48.972Z,971.57
2019-02-10T07:52:48.909Z,971.60
2019-02-10T07:53:48.855Z,971.56
2019-02-10T07:54:48.793Z,971.50
2019-02-10T07:55:48.728Z,971.41
2019-02-10T07:56:48.668Z,971.38
2019-02-10T07:57:48.610Z,971.35
2019-02-10T07:58:48.549Z,971.33
2019-02-10T07:59:48.487Z,971.35
2019-02-10T08:00:48.428Z,971.26
2019-02-10T08:01:48.368Z,971.27
2019-02-10T08:02:48.308Z,971.28
2019-02-10T08:03:48.246Z,971.21
2019-02-10T08:04:48.186Z,971.20
2019-02-10T08:05:48.127Z,971.14
2019-02-10T08:06:48.068Z,971.11
2019-02-10T08:07:48.006Z,971.13
2019-02-10T08:08:47.946Z,971.07
2019-02-10T08:09:47.886Z,971.04
2019-02-10T08:10:47.826Z,970.97
2019-02-10T08:11:47.764Z,970.96
2019-02-10T08:12:48.319Z,970.89
2019-02-10T08:13:47.645Z,970.75
2019-02-10T08:14:47.586Z,970.80
2019-02-10T08:15:47.533Z,970.76
2019-02-10T08:16:47.463Z,970.74
2019-02-10T08:17:47.406Z,970.75
2019-02-10T08:18:47.344Z,970.69
2019-02-10T08:19:47.287Z,970.66
2019-02-10T08:20:47.222Z,970.64
2019-02-10T08:21:47.164Z,970.66
2019-02-10T08:22:47.106Z,970.64
2019-02-10T08:23:47.042Z,970.57
2019-02-10T08:24:46.983Z,970.60
2019-02-10T08:25:46.923Z,970.59
2019-02-10T08:26:46.864Z,970.57
2019-02-10T08:27:46.810Z,970.54
2019-02-10T08:28:46.744Z,970.48
2019-02-10T08:29:46.681Z,970.53
2019-02-10T08:30:46.621Z,970.51
2019-02-10T08:31:46.564Z,970.39
2019-02-10T08:32:46.500Z,970.42
2019-02-10T08:33:46.440Z,970.45
2019-02-10T08:34:46.380Z,970.38
2019-02-10T08:35:46.322Z,970.38
2019-02-10T08:36:46.260Z,970.38
2019-02-10T08:37:46.199Z,970.37
2019-02-10T08:38:46.139Z,970.36
2019-02-10T08:39:46.079Z,970.29
2019-02-10T08:40:46.024Z,970.27
2019-02-10T08:41:45.958Z,970.31
2019-02-10T08:42:45.899Z,970.37
2019-02-10T08:43:45.843Z,970.19
2019-02-10T08:44:45.782Z,970.17
2019-02-10T08:45:45.718Z,970.17
2019-02-10T08:46:45.658Z,970.16
2019-02-10T08:47:45.604Z,970.14
2019-02-10T08:48:45.538Z,970.16
2019-02-10T08:49:45.478Z,970.08
2019-02-10T08:50:45.419Z,970.09
2019-02-10T08:51:45.357Z,970.04
2019-02-10T08:52:51.781Z,969.99
2019-02-10T08:53:45.237Z,969.97
2019-02-10T08:54:45.177Z,969.96
2019-02-10T08:55:45.122Z,969.86
2019-02-10T08:56:45.062Z,969.85
2019-02-10T08:57:44.996Z,969.90
2019-02-10T08:58:44.937Z,969.91
2019-02-10T08:59:44.877Z,969.84
2019-02-10T09:00:44.816Z,969.86
2019-02-10T09:01:44.755Z,969.87
2019-02-10T09:02:44.697Z,969.87
2019-02-10T09:03:44.640Z,969.76
2019-02-10T09:04:44.576Z,969.81
2019-02-10T09:05:44.515Z,969.91
2019-02-10T09:06:44.455Z,969.85
2019-02-10T09:07:44.404Z,969.88
2019-02-10T09:08:44.335Z,969.81
2019-02-10T09:09:44.275Z,969.80
2019-02-10T09:10:44.215Z,969.84
2019-02-10T09:11:44.157Z,969.84
2019-02-10T09:12:44.096Z,969.87
2019-02-10T09:13:44.037Z,969.82
2019-02-10T09:14:43.975Z,969.76
2019-02-10T09:15:43.913Z,969.70
2019-02-10T09:16:43.853Z,969.63
2019-02-10T09:17:43.800Z,969.62
2019-02-10T09:18:43.735Z,969.59
2019-02-10T09:19:43.673Z,969.55
2019-02-10T09:20:43.612Z,969.58
2019-02-10T09:21:43.553Z,969.60
2019-02-10T09:22:43.493Z,969.59
2019-02-10T09:23:43.433Z,969.53
2019-02-10T09:24:43.372Z,969.48
2019-02-10T09:25:43.314Z,969.38
2019-02-10T09:26:43.252Z,969.51
2019-02-10T09:27:43.193Z,969.44
2019-02-10T09:28:43.133Z,969.42
2019-02-10T09:29:43.072Z,969.34
2019-02-10T09:30:43.013Z,969.36
2019-02-10T09:31:42.955Z,969.27
2019-02-10T09:32:42.943Z,969.20
2019-02-10T09:33:42.834Z,969.12
2019-02-10T09:34:42.772Z,969.18
2019-02-10T09:35:42.716Z,969.22
2019-02-10T09:36:42.655Z,969.11
2019-02-10T09:37:42.596Z,969.08
2019-02-10T09:38:42.533Z,969.07
2019-02-10T09:39:42.470Z,969.12
2019-02-10T09:40:42.411Z,969.15
2019-02-10T09:41:42.351Z,969.07
2019-02-10T09:42:42.291Z,969.11
2019-02-10T09:43:42.231Z,969.08
2019-02-10T09:44:42.171Z,969.06
2019-02-10T09:45:42.110Z,969.03
2019-02-10T09:46:42.051Z,969.03
2019-02-10T09:47:41.990Z,968.95
2019-02-10T09:48:41.932Z,968.88
2019-02-10T09:49:41.872Z,968.89
2019-02-10T09:50:41.812Z,968.83
2019-02-10T09:51:41.751Z,968.84
2019-02-10T09:52:41.692Z,968.88
2019-02-10T09:53:41.635Z,968.92
2019-02-10T09:54:41.573Z,968.88
2019-02-10T09:55:41.510Z,968.86
2019-02-10T09:56:41.459Z,968.91
2019-02-10T09:57:41.391Z,968.97
2019-02-10T09:58:41.335Z,968.89
2019-02-10T09:59:41.271Z,968.88
2019-02-10T10:00:41.212Z,968.92
2019-02-10T10:01:41.151Z,968.86
2019-02-10T10:02:41.091Z,968.84
2019-02-10T10:03:41.034Z,968.84
2019-02-10T10:04:40.969Z,968.77
2019-02-10T10:05:40.913Z,968.70
2019-02-10T10:06:40.851Z,968.66
2019-02-10T10:07:40.790Z,968.68
2019-02-10T10:08:40.737Z,968.62
2019-02-10T10:09:40.671Z,968.63
2019-02-10T10:10:40.611Z,968.59
2019-02-10T10:11:40.553Z,968.58
2019-02-10T10:12:40.489Z,968.56
2019-02-10T10:13:40.430Z,968.50
2019-02-10T10:14:40.372Z,968.53
2019-02-10T10:15:40.310Z,968.55
2019-02-10T10:16:40.764Z,968.51
2019-02-10T10:17:40.190Z,968.51
2019-02-10T10:18:40.138Z,968.47
2019-02-10T10:19:40.069Z,968.48
2019-02-10T10:20:40.010Z,968.47
2019-02-10T10:21:39.951Z,968.48
2019-02-10T10:22:39.890Z,968.47
2019-02-10T10:23:39.830Z,968.39
2019-02-10T10:24:39.773Z,968.38
2019-02-10T10:25:39.710Z,968.35
2019-02-10T10:26:39.652Z,968.40
2019-02-10T10:27:39.593Z,968.36
2019-02-10T10:28:39.530Z,968.34
2019-02-10T10:29:39.470Z,968.35
2019-02-10T10:30:39.413Z,968.23
2019-02-10T10:31:39.351Z,968.16
2019-02-10T10:32:39.293Z,968.19
2019-02-10T10:33:39.232Z,968.21
2019-02-10T10:34:39.174Z,968.11
2019-02-10T10:35:39.111Z,968.16
2019-02-10T10:36:39.052Z,968.07
2019-02-10T10:37:38.995Z,968.02
2019-02-10T10:38:38.932Z,968.02
2019-02-10T10:39:38.871Z,968.00
2019-02-10T10:40:38.811Z,967.94
2019-02-10T10:41:38.752Z,967.92
2019-02-10T10:42:38.694Z,967.93
2019-02-10T10:43:38.643Z,967.89
2019-02-10T10:44:38.575Z,967.79
2019-02-10T10:45:38.521Z,967.82
2019-02-10T10:46:39.273Z,967.82
2019-02-10T10:47:38.392Z,967.74
2019-02-10T10:48:38.335Z,967.71
2019-02-10T10:49:38.273Z,967.58
2019-02-10T10:50:38.213Z,967.70
2019-02-10T10:51:39.317Z,967.63
2019-02-10T10:52:38.095Z,967.56
2019-02-10T10:53:38.035Z,967.59
2019-02-10T10:54:42.893Z,967.54
2019-02-10T10:55:37.914Z,967.51
2019-02-10T10:56:37.852Z,967.53
2019-02-10T10:57:37.795Z,967.50
2019-02-10T10:58:37.740Z,967.42
2019-02-10T10:59:37.676Z,967.45
2019-02-10T11:00:37.614Z,967.41
2019-02-10T11:01:37.558Z,967.41
2019-02-10T11:02:37.497Z,967.43
2019-02-10T11:03:37.436Z,967.40
2019-02-10T11:04:37.379Z,967.39
2019-02-10T11:05:37.316Z,967.39
2019-02-10T11:06:37.259Z,967.37
2019-02-10T11:07:37.196Z,967.32
2019-02-10T11:08:37.137Z,967.31
2019-02-10T11:09:37.080Z,967.29
2019-02-10T11:10:37.018Z,967.34
2019-02-10T11:11:36.956Z,967.26
2019-02-10T11:12:36.898Z,967.15
2019-02-10T11:13:36.839Z,967.07
2019-02-10T11:14:36.777Z,967.14
2019-02-10T11:15:36.717Z,967.12
2019-02-10T11:16:36.658Z,967.04
2019-02-10T11:17:36.598Z,967.05
2019-02-10T11:18:36.537Z,967.00
2019-02-10T11:19:36.481Z,967.01
2019-02-10T11:20:36.421Z,966.97
2019-02-10T11:21:36.363Z,966.94
2019-02-10T11:22:36.305Z,967.03
2019-02-10T11:23:36.243Z,966.98
2019-02-10T11:24:36.181Z,966.93
2019-02-10T11:25:36.123Z,966.93
2019-02-10T11:26:36.061Z,966.87
2019-02-10T11:27:36.003Z,966.88
2019-02-10T11:28:35.940Z,966.81
2019-02-10T11:29:35.881Z,966.81
2019-02-10T11:30:35.828Z,966.76
2019-02-10T11:31:35.761Z,966.74
2019-02-10T11:32:35.703Z,966.75
2019-02-10T11:33:35.642Z,966.67
2019-02-10T11:34:35.582Z,966.73
2019-02-10T11:35:35.522Z,966.76
2019-02-10T11:36:35.473Z,966.76
2019-02-10T11:37:35.408Z,966.68
2019-02-10T11:38:35.345Z,966.64
2019-02-10T11:39:35.296Z,966.61
2019-02-10T11:40:35.224Z,966.58
2019-02-10T11:41:35.165Z,966.48
2019-02-10T11:42:35.114Z,966.48
2019-02-10T11:43:35.047Z,966.44
2019-02-10T11:44:34.985Z,966.47
2019-02-10T11:45:34.927Z,966.42
2019-02-10T11:46:34.873Z,966.36
2019-02-10T11:47:34.814Z,966.41
2019-02-10T11:48:34.747Z,966.35
2019-02-10T11:49:34.692Z,966.36
2019-02-10T11:50:34.629Z,966.26
2019-02-10T11:51:34.571Z,966.23
2019-02-10T11:52:34.509Z,966.17
2019-02-10T11:53:34.451Z,966.19
2019-02-10T11:54:34.391Z,966.08
2019-02-10T11:55:34.328Z,966.21
2019-02-10T11:56:34.270Z,966.00
2019-02-10T11:57:34.211Z,966.12
2019-02-10T11:58:34.155Z,966.10
2019-02-10T11:59:34.093Z,966.19
2019-02-10T12:00:34.030Z,966.07
2019-02-10T12:01:33.972Z,966.01
2019-02-10T12:02:38.134Z,966.09
2019-02-10T12:03:33.852Z,965.92
2019-02-10T12:04:33.797Z,965.86
2019-02-10T12:05:33.742Z,965.86
2019-02-10T12:06:33.674Z,965.86
2019-02-10T12:07:33.612Z,965.82
2019-02-10T12:08:35.839Z,965.72
2019-02-10T12:09:33.495Z,965.89
2019-02-10T12:10:33.439Z,965.71
2019-02-10T12:11:33.379Z,965.76
2019-02-10T12:12:33.360Z,965.76
2019-02-10T12:13:33.262Z,965.77
2019-02-10T12:14:33.197Z,965.73
2019-02-10T12:15:33.136Z,965.62
2019-02-10T12:16:33.081Z,965.55
2019-02-10T12:17:33.024Z,965.59
2019-02-10T12:18:32.960Z,965.54
2019-02-10T12:19:32.899Z,965.53
2019-02-10T12:20:32.838Z,965.60
2019-02-10T12:21:32.779Z,965.62
2019-02-10T12:22:32.719Z,965.71
2019-02-10T12:23:32.658Z,965.70
2019-02-10T12:24:32.602Z,965.63
2019-02-10T12:25:32.540Z,965.69
2019-02-10T12:26:32.523Z,965.60
2019-02-10T12:27:32.420Z,965.57